LFCR/RDZ METAR and TAF weather

Enter ICAO airport designator
Station Type Date Time Source
LFCR METAR 2019/04/19 11:00 UTC NOAA

LFCR 191100Z AUTO 13022KT CAVOK 19/03 Q1024 BECMG 13017G28KT


Station Type Date Time Source
LFCR Decoded METAR 2019/04/19 11:00 UTC NOAA

Rodez, France (LFCR) 44-24N 002-29E 580M
Apr 19, 2019 - 07:00 AM EDT / 2019.04.19 1100 UTC
Wind: from the SE (130 degrees) at 25 MPH (22 KT):0
Visibility: greater than 7 mile(s):0
Temperature: 66 F (19 C)
Dew Point: 37 F (3 C)
Relative Humidity: 34%
Pressure (altimeter): 30.24 in. Hg (1024 hPa)
ob: LFCR 191100Z AUTO 13022KT CAVOK 19/03 Q1024 BECMG 13017G28KT
cycle: 11

Station Type Date Time Source
LFCR TAF 2019/04/19 06:21 UTC NOAA

TAF LFCR 190500Z 1906/2006 13017G28KT CAVOK
BECMG 1914/1916 11012KT

Example: see airport list